Time;durP1;ratioP1;P1;durP2;ratioP2;P2;SDS_P1;SDS_P2;PMS_P1;PMS_P2;Temp;Humidity;BMP_temperature;BMP_pressure;BME280_temperature;BME280_humidity;BME280_pressure;Samples;Min_cycle;Max_cycle;Signal;HPM_P1;HPM_P2
2022/08/30 00:02:19;;;;;;;1.23;0.93;;;;;;;;;;2349673;53;21585;-84
2022/08/30 00:04:47;;;;;;;2.08;1.15;;;;;;;;;;2354128;53;21117;-83
2022/08/30 00:07:14;;;;;;;1.55;1.10;;;;;;;;;;2349558;54;21092;-83
2022/08/30 00:09:41;;;;;;;2.50;1.30;;;;;;;;;;2349550;57;21088;-85
2022/08/30 00:12:08;;;;;;;2.10;1.23;;;;;;;;;;2348896;57;21045;-83
2022/08/30 00:14:35;;;;;;;1.20;0.85;;;;;;;;;;2349851;57;21161;-84
2022/08/30 00:17:02;;;;;;;2.72;1.40;;;;;;;;;;2348727;57;21529;-85
2022/08/30 00:19:30;;;;;;;3.17;1.10;;;;;;;;;;2349566;57;21108;-84
2022/08/30 00:21:57;;;;;;;1.95;1.40;;;;;;;;;;2349572;54;21664;-85
2022/08/30 00:24:24;;;;;;;4.72;1.30;;;;;;;;;;2349814;57;21041;-85
2022/08/30 00:26:52;;;;;;;1.83;1.20;;;;;;;;;;2348658;57;21125;-84
2022/08/30 00:29:19;;;;;;;2.47;1.30;;;;;;;;;;2349188;57;21048;-85
2022/08/30 00:31:46;;;;;;;2.37;1.05;;;;;;;;;;2350009;53;21065;-85
2022/08/30 00:34:15;;;;;;;2.25;1.05;;;;;;;;;;2348860;57;21096;-85
2022/08/30 00:36:42;;;;;;;1.92;0.82;;;;;;;;;;2351831;53;21125;-84
2022/08/30 00:39:09;;;;;;;3.42;1.33;;;;;;;;;;2349949;57;21045;-84
2022/08/30 00:41:36;;;;;;;3.58;1.30;;;;;;;;;;2349136;57;21021;-85
2022/08/30 00:44:03;;;;;;;3.40;1.50;;;;;;;;;;2349124;57;21096;-85
2022/08/30 00:46:31;;;;;;;1.62;0.85;;;;;;;;;;2348833;57;21621;-84
2022/08/30 00:49:01;;;;;;;3.50;1.48;;;;;;;;;;2379046;53;21065;-84
2022/08/30 00:51:32;;;;;;;1.62;1.10;;;;;;;;;;2349490;57;21077;-84
2022/08/30 00:53:59;;;;;;;2.97;1.25;;;;;;;;;;2349750;57;21550;-84
2022/08/30 00:56:28;;;;;;;1.62;1.20;;;;;;;;;;2349467;57;21041;-84
2022/08/30 00:58:57;;;;;;;2.00;1.25;;;;;;;;;;2373704;53;21104;-85
2022/08/30 01:01:24;;;;;;;1.10;0.95;;;;;;;;;;2370496;53;21081;-84
2022/08/30 01:03:52;;;;;;;2.15;1.10;;;;;;;;;;2484276;52;72740;-76
2022/08/30 01:06:19;;;;;;;1.40;1.10;;;;;;;;;;2396039;56;21035;-76
2022/08/30 01:08:47;;;;;;;1.52;1.27;;;;;;;;;;2396009;56;21042;-76
2022/08/30 01:11:15;;;;;;;1.52;1.02;;;;;;;;;;2396780;56;21682;-76
2022/08/30 01:13:42;;;;;;;2.33;1.20;;;;;;;;;;2413372;55;21542;-75
2022/08/30 01:16:10;;;;;;;1.37;0.90;;;;;;;;;;2419013;55;21089;-76
2022/08/30 01:18:38;;;;;;;1.52;1.23;;;;;;;;;;2420033;55;21535;-79
2022/08/30 01:21:10;;;;;;;1.50;1.10;;;;;;;;;;2420416;55;21096;-76
2022/08/30 01:23:40;;;;;;;2.70;1.67;;;;;;;;;;2420881;55;21613;-77
2022/08/30 01:26:08;;;;;;;1.87;1.12;;;;;;;;;;2419785;55;21010;-76
2022/08/30 01:28:35;;;;;;;2.83;1.25;;;;;;;;;;2420550;55;21057;-76
2022/08/30 01:31:03;;;;;;;1.75;1.35;;;;;;;;;;2419415;55;21108;-76
2022/08/30 01:33:30;;;;;;;1.83;1.12;;;;;;;;;;2420377;55;22240;-75
2022/08/30 01:35:58;;;;;;;3.72;1.20;;;;;;;;;;2419454;55;21080;-76
2022/08/30 01:38:27;;;;;;;7.15;1.23;;;;;;;;;;2420639;55;21610;-76
2022/08/30 01:40:58;;;;;;;1.83;1.05;;;;;;;;;;2420730;55;21029;-75
2022/08/30 01:43:25;;;;;;;1.85;1.33;;;;;;;;;;2420313;55;21104;-75
2022/08/30 01:45:52;;;;;;;2.12;1.30;;;;;;;;;;2419251;55;21105;-76
2022/08/30 01:48:20;;;;;;;2.92;1.20;;;;;;;;;;2420208;55;21095;-76
2022/08/30 01:50:48;;;;;;;2.20;1.17;;;;;;;;;;2420116;55;21121;-76
2022/08/30 01:53:15;;;;;;;1.98;1.37;;;;;;;;;;2420340;55;21037;-76
2022/08/30 01:55:42;;;;;;;2.75;1.20;;;;;;;;;;2419592;55;21156;-75
2022/08/30 01:58:09;;;;;;;2.65;1.30;;;;;;;;;;2419992;55;21636;-76
2022/08/30 02:00:37;;;;;;;2.00;1.17;;;;;;;;;;2420761;55;21582;-76
2022/08/30 02:03:04;;;;;;;2.40;1.73;;;;;;;;;;2419623;55;21041;-76
2022/08/30 02:05:31;;;;;;;1.65;1.10;;;;;;;;;;2419286;55;21057;-76
2022/08/30 02:07:58;;;;;;;2.00;1.02;;;;;;;;;;2420280;55;21523;-76
2022/08/30 02:10:26;;;;;;;2.25;1.35;;;;;;;;;;2420389;55;21064;-75
2022/08/30 02:12:53;;;;;;;3.40;1.35;;;;;;;;;;2420239;55;21527;-76
2022/08/30 02:15:20;;;;;;;2.87;1.27;;;;;;;;;;2420324;55;22194;-75
2022/08/30 02:17:47;;;;;;;2.03;1.15;;;;;;;;;;2417983;55;21109;-76
2022/08/30 02:20:14;;;;;;;2.20;1.12;;;;;;;;;;2420970;55;21021;-75
2022/08/30 02:22:41;;;;;;;2.87;1.48;;;;;;;;;;2420313;55;21045;-77
2022/08/30 02:25:09;;;;;;;2.08;1.45;;;;;;;;;;2420751;55;21021;-76
2022/08/30 02:27:43;;;;;;;1.70;1.15;;;;;;;;;;2419694;55;22356;-75
2022/08/30 02:30:12;;;;;;;2.40;1.60;;;;;;;;;;2419980;55;21025;-75
2022/08/30 02:32:40;;;;;;;2.50;1.33;;;;;;;;;;2420322;55;21555;-75
2022/08/30 02:35:08;;;;;;;2.30;1.20;;;;;;;;;;2420436;55;21021;-75
2022/08/30 02:37:35;;;;;;;3.97;1.20;;;;;;;;;;2419659;55;21033;-76
2022/08/30 02:40:03;;;;;;;4.07;1.95;;;;;;;;;;2420532;55;21041;-77
2022/08/30 02:42:30;;;;;;;3.65;1.30;;;;;;;;;;2420228;55;21547;-76
2022/08/30 02:44:58;;;;;;;1.92;1.15;;;;;;;;;;2420366;55;21032;-75
2022/08/30 02:47:25;;;;;;;3.00;1.25;;;;;;;;;;2419879;55;21106;-78
2022/08/30 02:49:52;;;;;;;2.70;1.17;;;;;;;;;;2420381;55;21089;-76
2022/08/30 02:52:19;;;;;;;2.15;1.20;;;;;;;;;;2420078;55;21692;-75
2022/08/30 02:54:46;;;;;;;2.17;1.50;;;;;;;;;;2420517;55;21587;-75
2022/08/30 02:57:13;;;;;;;1.65;1.30;;;;;;;;;;2420035;55;21625;-75
2022/08/30 02:59:43;;;;;;;3.12;1.00;;;;;;;;;;2684115;51;21682;-75
2022/08/30 03:02:10;;;;;;;3.00;1.23;;;;;;;;;;2420873;55;21112;-76
2022/08/30 03:04:38;;;;;;;2.15;1.30;;;;;;;;;;2420596;55;21165;-76
2022/08/30 03:07:05;;;;;;;2.85;1.70;;;;;;;;;;2420217;55;21041;-76
2022/08/30 03:09:32;;;;;;;5.37;1.42;;;;;;;;;;2420156;55;21033;-79
2022/08/30 03:11:59;;;;;;;2.42;1.25;;;;;;;;;;2418962;55;21037;-76
2022/08/30 03:14:27;;;;;;;2.33;1.00;;;;;;;;;;2420942;55;21120;-78
2022/08/30 03:16:54;;;;;;;1.58;1.00;;;;;;;;;;2419732;55;21029;-76
2022/08/30 03:19:22;;;;;;;4.05;1.62;;;;;;;;;;2417779;55;21531;-77
2022/08/30 03:21:49;;;;;;;1.80;1.20;;;;;;;;;;2418474;55;21029;-78
2022/08/30 03:24:17;;;;;;;3.08;1.40;;;;;;;;;;2418984;55;21056;-77
2022/08/30 03:26:44;;;;;;;2.83;1.00;;;;;;;;;;2419075;55;21041;-77
2022/08/30 03:29:11;;;;;;;1.20;1.10;;;;;;;;;;2420637;55;22122;-76
2022/08/30 03:31:38;;;;;;;2.62;1.17;;;;;;;;;;2420278;55;21638;-77
2022/08/30 03:34:05;;;;;;;2.03;1.10;;;;;;;;;;2420159;55;21116;-77
2022/08/30 03:36:32;;;;;;;2.12;1.00;;;;;;;;;;2419375;55;21029;-77
2022/08/30 03:38:59;;;;;;;2.12;1.45;;;;;;;;;;2419275;55;21583;-76
2022/08/30 03:41:26;;;;;;;1.73;1.12;;;;;;;;;;2419694;55;21037;-78
2022/08/30 03:43:53;;;;;;;2.33;1.23;;;;;;;;;;2418243;55;21009;-77
2022/08/30 03:46:20;;;;;;;2.35;1.40;;;;;;;;;;2419987;55;21381;-78
2022/08/30 03:48:47;;;;;;;1.60;1.35;;;;;;;;;;2418909;55;21187;-76
2022/08/30 03:51:14;;;;;;;1.20;1.10;;;;;;;;;;2420080;55;21021;-77
2022/08/30 03:53:41;;;;;;;1.87;1.35;;;;;;;;;;2419963;55;21040;-77
2022/08/30 03:56:08;;;;;;;3.10;1.30;;;;;;;;;;2418073;55;21069;-77
2022/08/30 03:58:35;;;;;;;1.20;1.10;;;;;;;;;;2419026;55;21045;-77
2022/08/30 04:01:02;;;;;;;1.42;1.05;;;;;;;;;;2419380;55;21025;-77
2022/08/30 04:03:30;;;;;;;5.40;1.37;;;;;;;;;;2418509;55;21021;-78
2022/08/30 04:05:57;;;;;;;2.62;1.55;;;;;;;;;;2418553;55;21113;-77
2022/08/30 04:08:24;;;;;;;1.58;1.17;;;;;;;;;;2420051;55;21588;-77
2022/08/30 04:10:52;;;;;;;1.50;1.10;;;;;;;;;;2418371;55;21029;-76
2022/08/30 04:13:19;;;;;;;2.17;1.45;;;;;;;;;;2420062;55;21045;-76
2022/08/30 04:15:46;;;;;;;2.03;1.35;;;;;;;;;;2420321;55;21116;-78
2022/08/30 04:18:13;;;;;;;1.87;1.25;;;;;;;;;;2420287;55;21025;-75
2022/08/30 04:20:43;;;;;;;1.77;1.37;;;;;;;;;;2418562;55;21337;-76
2022/08/30 04:23:11;;;;;;;1.50;1.15;;;;;;;;;;2420947;55;21026;-76
2022/08/30 04:25:38;;;;;;;1.85;1.08;;;;;;;;;;2420029;55;21100;-76
2022/08/30 04:28:06;;;;;;;1.70;1.30;;;;;;;;;;2420428;55;21514;-76
2022/08/30 04:30:33;;;;;;;2.12;1.12;;;;;;;;;;2420369;55;21099;-75
2022/08/30 04:33:00;;;;;;;4.28;1.55;;;;;;;;;;2420384;55;21617;-76
2022/08/30 04:35:27;;;;;;;2.78;1.65;;;;;;;;;;2419869;55;21049;-76
2022/08/30 04:37:54;;;;;;;2.58;1.05;;;;;;;;;;2420454;55;21108;-76
2022/08/30 04:40:22;;;;;;;1.37;1.10;;;;;;;;;;2420869;55;21151;-76
2022/08/30 04:42:52;;;;;;;1.83;1.48;;;;;;;;;;2419784;55;21021;-76
2022/08/30 04:45:20;;;;;;;4.62;1.48;;;;;;;;;;2419859;55;21102;-76
2022/08/30 04:47:47;;;;;;;1.45;1.35;;;;;;;;;;2420713;55;21029;-76
2022/08/30 04:50:15;;;;;;;3.92;1.45;;;;;;;;;;2420535;55;21085;-79
2022/08/30 04:52:43;;;;;;;0.95;0.90;;;;;;;;;;2420212;55;21358;-79
2022/08/30 04:55:11;;;;;;;2.28;1.20;;;;;;;;;;2419595;55;21538;-78
2022/08/30 04:57:39;;;;;;;1.92;1.33;;;;;;;;;;2420016;55;21035;-77
2022/08/30 05:00:08;;;;;;;2.25;1.27;;;;;;;;;;2421321;55;21040;-78
2022/08/30 05:02:35;;;;;;;4.22;1.30;;;;;;;;;;2685468;51;21116;-78
2022/08/30 05:07:48;;;;;;;2.03;1.08;;;;;;;;;;2422453;55;20975;-78
2022/08/30 05:10:16;;;;;;;1.50;1.20;;;;;;;;;;2421481;55;22168;-79
2022/08/30 05:12:43;;;;;;;3.62;1.35;;;;;;;;;;2421162;55;21065;-78
2022/08/30 05:15:11;;;;;;;2.20;1.40;;;;;;;;;;2422006;55;21072;-79
2022/08/30 05:17:38;;;;;;;2.65;1.10;;;;;;;;;;2421642;55;22243;-79
2022/08/30 05:20:09;;;;;;;4.72;1.73;;;;;;;;;;2421218;55;21503;-79
2022/08/30 05:22:36;;;;;;;5.32;1.75;;;;;;;;;;2421757;55;21540;-78
2022/08/30 05:25:03;;;;;;;1.75;1.12;;;;;;;;;;2421934;55;21615;-79
2022/08/30 05:27:31;;;;;;;2.10;1.35;;;;;;;;;;2685617;51;21053;-79
2022/08/30 05:29:58;;;;;;;2.90;1.37;;;;;;;;;;2421327;55;21089;-78
2022/08/30 05:32:25;;;;;;;2.87;1.40;;;;;;;;;;2421874;55;21045;-79
2022/08/30 05:34:52;;;;;;;2.30;1.40;;;;;;;;;;2420943;55;21543;-78
2022/08/30 05:37:19;;;;;;;1.52;1.27;;;;;;;;;;2420922;55;21025;-79
2022/08/30 05:39:46;;;;;;;4.10;1.48;;;;;;;;;;2421344;55;22688;-77
2022/08/30 05:42:13;;;;;;;3.55;1.67;;;;;;;;;;2421749;55;21032;-79
2022/08/30 05:44:40;;;;;;;2.62;1.52;;;;;;;;;;2422130;55;21049;-79
2022/08/30 05:47:07;;;;;;;1.77;1.42;;;;;;;;;;2421076;55;21037;-79
2022/08/30 05:49:34;;;;;;;2.40;1.35;;;;;;;;;;2421703;55;21080;-79
2022/08/30 05:52:01;;;;;;;2.83;1.65;;;;;;;;;;2421357;55;21041;-78
2022/08/30 05:54:29;;;;;;;3.40;1.37;;;;;;;;;;2421377;55;21075;-79
2022/08/30 05:56:56;;;;;;;1.75;1.40;;;;;;;;;;2421438;55;21566;-78
2022/08/30 05:59:23;;;;;;;2.37;1.42;;;;;;;;;;2421380;55;21597;-79
2022/08/30 06:01:50;;;;;;;1.10;1.00;;;;;;;;;;2422075;55;21041;-78
2022/08/30 06:04:17;;;;;;;3.47;1.60;;;;;;;;;;2421779;55;21076;-79
2022/08/30 06:06:44;;;;;;;2.65;1.30;;;;;;;;;;2420876;55;21089;-78
2022/08/30 06:09:12;;;;;;;2.58;1.42;;;;;;;;;;2421836;55;21076;-79
2022/08/30 06:11:39;;;;;;;3.20;1.40;;;;;;;;;;2421092;55;21056;-79
2022/08/30 06:14:07;;;;;;;2.05;1.50;;;;;;;;;;2421416;55;21025;-79
2022/08/30 06:16:34;;;;;;;1.65;1.20;;;;;;;;;;2421605;55;21333;-79
2022/08/30 06:19:01;;;;;;;3.97;2.05;;;;;;;;;;2421961;55;21084;-78
2022/08/30 06:21:30;;;;;;;2.37;1.50;;;;;;;;;;2421744;55;21040;-77
2022/08/30 06:23:57;;;;;;;2.45;1.50;;;;;;;;;;2422099;55;21531;-78
2022/08/30 06:26:25;;;;;;;2.42;1.40;;;;;;;;;;2685320;51;21001;-79
2022/08/30 06:28:52;;;;;;;3.28;1.40;;;;;;;;;;2421108;55;21528;-78
2022/08/30 06:31:20;;;;;;;2.17;1.15;;;;;;;;;;2421800;55;21539;-75
2022/08/30 06:33:47;;;;;;;2.08;1.40;;;;;;;;;;2422446;55;21053;-76
2022/08/30 06:36:16;;;;;;;4.30;1.73;;;;;;;;;;2421765;55;21056;-78
2022/08/30 06:38:44;;;;;;;2.60;1.70;;;;;;;;;;2422512;55;21033;-78
2022/08/30 06:41:13;;;;;;;2.30;1.37;;;;;;;;;;2421846;55;21052;-79
2022/08/30 06:43:40;;;;;;;1.98;1.50;;;;;;;;;;2421518;55;21411;-77
2022/08/30 06:46:08;;;;;;;1.90;1.20;;;;;;;;;;2421429;55;21056;-78
2022/08/30 06:48:35;;;;;;;3.92;1.30;;;;;;;;;;2421418;55;21551;-78
2022/08/30 06:51:02;;;;;;;3.33;1.90;;;;;;;;;;2686201;51;21099;-79
2022/08/30 06:53:29;;;;;;;4.20;2.10;;;;;;;;;;2686381;51;21063;-78
2022/08/30 06:55:57;;;;;;;2.60;1.50;;;;;;;;;;2421246;55;21574;-76
2022/08/30 06:58:24;;;;;;;2.20;1.40;;;;;;;;;;2422121;55;21037;-79
2022/08/30 07:00:52;;;;;;;2.37;1.60;;;;;;;;;;2686744;51;21045;-77
2022/08/30 07:03:19;;;;;;;1.98;1.27;;;;;;;;;;2412586;52;71176;-81
2022/08/30 07:05:48;;;;;;;1.67;1.30;;;;;;;;;;2348226;57;21111;-81
2022/08/30 07:08:16;;;;;;;1.55;1.20;;;;;;;;;;2596603;53;21068;-81
2022/08/30 07:10:44;;;;;;;3.50;1.42;;;;;;;;;;2348979;57;21080;-81
2022/08/30 07:13:11;;;;;;;2.62;1.67;;;;;;;;;;2348999;57;21072;-81
2022/08/30 07:15:40;;;;;;;2.33;1.62;;;;;;;;;;2594034;53;21056;-81
2022/08/30 07:20:53;;;;;;;2.22;1.60;;;;;;;;;;2347566;57;21111;-82
2022/08/30 07:23:20;;;;;;;2.62;1.50;;;;;;;;;;2592346;53;21125;-82
2022/08/30 07:25:47;;;;;;;5.22;1.45;;;;;;;;;;2346697;57;21072;-82
2022/08/30 07:28:14;;;;;;;2.87;1.80;;;;;;;;;;2593645;53;21471;-82
2022/08/30 07:30:41;;;;;;;2.12;1.73;;;;;;;;;;2347758;57;21049;-82
2022/08/30 07:33:08;;;;;;;2.65;1.62;;;;;;;;;;2347705;57;21061;-82
2022/08/30 07:35:36;;;;;;;4.07;1.42;;;;;;;;;;2594189;53;21115;-82
2022/08/30 07:38:03;;;;;;;2.53;1.70;;;;;;;;;;2594238;53;22055;-82
2022/08/30 07:40:30;;;;;;;3.45;1.67;;;;;;;;;;2347615;57;21145;-82
2022/08/30 07:43:00;;;;;;;4.85;1.75;;;;;;;;;;2347010;57;21053;-82
2022/08/30 07:45:27;;;;;;;3.53;1.60;;;;;;;;;;2347200;57;21088;-82
2022/08/30 07:47:56;;;;;;;5.75;2.37;;;;;;;;;;2594423;53;21132;-82
2022/08/30 07:50:23;;;;;;;4.47;1.92;;;;;;;;;;2347790;57;21203;-82
2022/08/30 07:52:50;;;;;;;5.45;1.80;;;;;;;;;;2593891;53;21115;-82
2022/08/30 07:55:17;;;;;;;2.37;1.40;;;;;;;;;;2346825;57;21089;-82
2022/08/30 07:57:44;;;;;;;3.28;1.23;;;;;;;;;;2346674;57;21045;-82
2022/08/30 08:00:12;;;;;;;3.97;1.48;;;;;;;;;;2347140;57;21076;-82
2022/08/30 08:02:40;;;;;;;4.32;1.70;;;;;;;;;;2593749;53;21072;-81
2022/08/30 08:05:09;;;;;;;2.05;1.50;;;;;;;;;;2347137;57;21104;-82
2022/08/30 08:07:36;;;;;;;1.65;1.45;;;;;;;;;;2592786;53;21600;-81
2022/08/30 08:10:04;;;;;;;3.08;1.58;;;;;;;;;;2347328;57;21056;-82
2022/08/30 08:12:31;;;;;;;6.18;1.55;;;;;;;;;;2346613;57;21561;-81
2022/08/30 08:14:58;;;;;;;0.95;0.90;;;;;;;;;;2345902;57;21124;-81
2022/08/30 08:17:25;;;;;;;1.02;0.90;;;;;;;;;;2345053;57;21045;-82
2022/08/30 08:19:52;;;;;;;2.17;1.25;;;;;;;;;;2346602;57;21065;-82
2022/08/30 08:22:19;;;;;;;1.95;1.20;;;;;;;;;;2346025;57;21116;-82
2022/08/30 08:24:46;;;;;;;1.52;1.00;;;;;;;;;;2591714;53;21188;-82
2022/08/30 08:27:13;;;;;;;1.05;0.82;;;;;;;;;;2345577;57;21073;-82
2022/08/30 08:29:40;;;;;;;0.60;0.60;;;;;;;;;;2346249;57;21065;-82
2022/08/30 08:32:07;;;;;;;1.42;1.10;;;;;;;;;;2593019;53;21074;-81
2022/08/30 08:34:34;;;;;;;1.65;0.95;;;;;;;;;;2344608;57;21155;-82
2022/08/30 08:37:01;;;;;;;2.58;1.00;;;;;;;;;;2345938;57;21136;-82
2022/08/30 08:39:28;;;;;;;1.20;0.75;;;;;;;;;;2346214;57;21100;-81
2022/08/30 08:42:01;;;;;;;1.55;1.08;;;;;;;;;;2593558;53;21154;-81
2022/08/30 08:44:34;;;;;;;1.40;1.10;;;;;;;;;;2346863;57;21155;-82
2022/08/30 08:47:06;;;;;;;5.10;1.20;;;;;;;;;;2345559;57;21177;-79
2022/08/30 08:49:36;;;;;;;1.10;0.80;;;;;;;;;;2594014;53;21100;-81
2022/08/30 08:54:51;;;;;;;1.80;1.10;;;;;;;;;;2347116;57;21088;-81
2022/08/30 08:57:18;;;;;;;1.37;1.27;;;;;;;;;;2594831;53;21049;-81
2022/08/30 08:59:45;;;;;;;1.33;1.20;;;;;;;;;;2347339;57;21088;-81
2022/08/30 09:02:19;;;;;;;1.50;1.40;;;;;;;;;;2348252;57;21072;-82
2022/08/30 09:04:46;;;;;;;1.12;1.02;;;;;;;;;;2595210;53;21061;-81
2022/08/30 09:07:17;;;;;;;2.47;1.48;;;;;;;;;;2594758;53;21648;-81
2022/08/30 09:09:44;;;;;;;1.65;1.37;;;;;;;;;;2348147;57;21089;-81
2022/08/30 09:12:12;;;;;;;1.80;1.33;;;;;;;;;;2347319;57;21068;-81
2022/08/30 09:14:41;;;;;;;1.33;1.08;;;;;;;;;;2347975;57;21116;-81
2022/08/30 09:17:09;;;;;;;2.83;1.10;;;;;;;;;;2594117;53;21076;-82
2022/08/30 09:19:38;;;;;;;2.37;1.00;;;;;;;;;;2594989;53;21560;-81
2022/08/30 09:22:11;;;;;;;6.22;1.23;;;;;;;;;;2348130;57;21100;-81
2022/08/30 09:24:41;;;;;;;1.77;1.15;;;;;;;;;;2348378;57;21124;-81
2022/08/30 10:13:52;;;;;;;1.10;1.00;;;;;;;;;;2213345;59;21090;-92
2022/08/30 10:19:30;;;;;;;2.85;1.45;;;;;;;;;;2306365;58;21317;-90
2022/08/30 10:25:10;;;;;;;1.55;1.05;;;;;;;;;;2552404;54;21012;-90
2022/08/30 10:27:44;;;;;;;1.77;0.95;;;;;;;;;;2562775;52;21079;-89
2022/08/30 10:30:13;;;;;;;2.92;1.10;;;;;;;;;;2630348;52;21037;-89
2022/08/30 10:32:43;;;;;;;3.25;1.33;;;;;;;;;;2377702;56;21173;-88
2022/08/30 10:35:13;;;;;;;2.62;0.98;;;;;;;;;;2629629;52;21073;-89
2022/08/30 10:37:41;;;;;;;2.65;1.30;;;;;;;;;;2630610;52;21059;-89
2022/08/30 10:43:01;;;;;;;1.62;1.02;;;;;;;;;;2629583;52;21043;-89
2022/08/30 10:45:30;;;;;;;3.65;0.93;;;;;;;;;;2377512;56;21059;-89
2022/08/30 10:48:00;;;;;;;2.22;1.20;;;;;;;;;;2629273;52;21094;-89
2022/08/30 10:50:30;;;;;;;1.77;0.88;;;;;;;;;;2629628;52;21086;-89
2022/08/30 10:52:59;;;;;;;1.90;1.08;;;;;;;;;;2377010;56;21553;-90
2022/08/30 10:55:28;;;;;;;1.70;1.12;;;;;;;;;;2629042;52;21126;-84
2022/08/30 10:57:59;;;;;;;1.33;0.95;;;;;;;;;;2630838;51;21047;-82
2022/08/30 11:00:29;;;;;;;2.83;0.93;;;;;;;;;;2629373;52;21046;-89
2022/08/30 11:03:15;;;;;;;1.00;0.90;;;;;;;;;;2629573;52;21058;-87
2022/08/30 11:05:47;;;;;;;1.70;1.00;;;;;;;;;;2376452;56;21023;-86
2022/08/30 11:08:24;;;;;;;2.00;0.90;;;;;;;;;;2376033;56;21047;-84
2022/08/30 11:10:55;;;;;;;1.20;1.00;;;;;;;;;;2375198;56;21059;-84
2022/08/30 11:13:23;;;;;;;1.23;1.00;;;;;;;;;;2629240;52;21047;-84
2022/08/30 11:15:56;;;;;;;1.67;1.02;;;;;;;;;;2374969;56;21027;-84
2022/08/30 11:18:24;;;;;;;1.87;1.15;;;;;;;;;;2628505;52;21115;-84
2022/08/30 11:20:53;;;;;;;2.97;1.00;;;;;;;;;;2628736;52;21055;-82
2022/08/30 11:23:31;;;;;;;2.35;1.10;;;;;;;;;;2628565;52;21047;-82
2022/08/30 11:26:00;;;;;;;1.52;1.00;;;;;;;;;;2375298;56;21528;-84
2022/08/30 11:28:45;;;;;;;1.12;0.90;;;;;;;;;;2629549;52;21099;-84
2022/08/30 11:31:32;;;;;;;2.05;0.82;;;;;;;;;;2629055;52;21090;-83
2022/08/30 11:33:59;;;;;;;2.28;0.80;;;;;;;;;;2628366;52;21094;-82
2022/08/30 11:36:44;;;;;;;1.30;0.90;;;;;;;;;;2375370;56;21026;-84
2022/08/30 11:39:13;;;;;;;2.33;0.90;;;;;;;;;;2376651;56;21102;-87
2022/08/30 11:41:41;;;;;;;1.35;0.80;;;;;;;;;;2629347;52;21082;-87
2022/08/30 11:44:28;;;;;;;1.25;1.00;;;;;;;;;;2376368;56;21035;-87
2022/08/30 11:46:57;;;;;;;2.65;0.90;;;;;;;;;;2376686;56;21067;-87
2022/08/30 11:49:45;;;;;;;1.33;0.75;;;;;;;;;;2628917;52;21047;-87
2022/08/30 11:52:19;;;;;;;1.58;1.20;;;;;;;;;;2376010;56;21075;-86
2022/08/30 11:54:53;;;;;;;1.37;0.80;;;;;;;;;;2375560;56;21027;-82
2022/08/30 11:57:25;;;;;;;2.65;0.70;;;;;;;;;;2376040;56;21082;-87
2022/08/30 11:59:58;;;;;;;1.20;0.80;;;;;;;;;;2628579;52;21102;-86
2022/08/30 12:02:49;;;;;;;1.75;0.88;;;;;;;;;;2628925;52;21102;-87
2022/08/30 12:05:34;;;;;;;1.42;0.90;;;;;;;;;;2628942;52;21058;-87
2022/08/30 12:08:02;;;;;;;1.27;0.85;;;;;;;;;;2629362;52;21114;-83
2022/08/30 12:10:37;;;;;;;5.10;1.15;;;;;;;;;;2629391;52;21107;-84
2022/08/30 12:13:04;;;;;;;4.07;0.75;;;;;;;;;;2375645;56;21071;-82
2022/08/30 12:15:54;;;;;;;1.27;0.90;;;;;;;;;;2628306;52;21169;-83
2022/08/30 12:18:29;;;;;;;1.83;1.00;;;;;;;;;;2629886;52;21039;-85
2022/08/30 12:20:59;;;;;;;1.60;1.00;;;;;;;;;;2630062;52;21593;-84
2022/08/30 12:23:31;;;;;;;1.27;0.90;;;;;;;;;;2630044;52;21039;-84
2022/08/30 12:26:10;;;;;;;1.90;1.00;;;;;;;;;;2629441;52;21062;-83
2022/08/30 12:28:37;;;;;;;1.00;0.77;;;;;;;;;;2376657;56;21106;-83
2022/08/30 12:31:08;;;;;;;1.92;0.93;;;;;;;;;;2375964;56;21062;-83
2022/08/30 12:33:41;;;;;;;2.47;1.15;;;;;;;;;;2629560;52;21051;-86
2022/08/30 12:36:11;;;;;;;2.50;0.90;;;;;;;;;;2376327;56;21059;-83
2022/08/30 12:38:58;;;;;;;16.67;2.80;;;;;;;;;;2631275;52;21110;-90
2022/08/30 12:41:25;;;;;;;1.17;0.88;;;;;;;;;;2632104;52;21521;-90
2022/08/30 12:43:53;;;;;;;1.15;0.80;;;;;;;;;;2632431;52;21241;-92
2022/08/30 12:46:21;;;;;;;8.13;1.65;;;;;;;;;;2632009;52;21070;-90
2022/08/30 12:48:48;;;;;;;2.72;0.90;;;;;;;;;;2632420;52;21047;-91
2022/08/30 12:51:30;;;;;;;1.10;0.90;;;;;;;;;;2633678;51;21006;-90
2022/08/30 12:54:03;;;;;;;1.15;0.93;;;;;;;;;;2633618;52;21142;-89
2022/08/30 12:56:46;;;;;;;1.65;0.90;;;;;;;;;;2633981;52;21743;-91
2022/08/30 12:59:37;;;;;;;2.05;1.27;;;;;;;;;;2633698;52;21035;-92
2022/08/30 13:02:12;;;;;;;1.62;0.73;;;;;;;;;;2633731;52;21340;-91
2022/08/30 13:04:39;;;;;;;1.40;0.80;;;;;;;;;;2576649;51;71108;-78
2022/08/30 13:07:06;;;;;;;1.30;0.85;;;;;;;;;;2301158;58;21102;-77
2022/08/30 13:09:34;;;;;;;0.65;0.65;;;;;;;;;;2301876;58;21183;-78
2022/08/30 13:12:02;;;;;;;1.50;0.90;;;;;;;;;;2300731;58;22477;-78
2022/08/30 13:14:35;;;;;;;5.00;1.08;;;;;;;;;;2301552;58;21059;-78
2022/08/30 13:17:06;;;;;;;267.00;35.13;;;;;;;;;;2300807;58;21038;-78
2022/08/30 13:19:34;;;;;;;4.43;1.48;;;;;;;;;;2301454;58;21130;-80
2022/08/30 13:22:01;;;;;;;7.75;1.90;;;;;;;;;;2300740;58;21125;-79
2022/08/30 13:24:29;;;;;;;3.30;1.17;;;;;;;;;;2300903;58;21124;-78
2022/08/30 13:26:58;;;;;;;1.95;1.00;;;;;;;;;;2299549;58;21118;-78
2022/08/30 13:29:26;;;;;;;60.85;7.93;;;;;;;;;;2299429;58;21050;-80
2022/08/30 13:31:53;;;;;;;8.90;2.17;;;;;;;;;;2299610;58;21146;-78
2022/08/30 13:34:21;;;;;;;7.80;1.62;;;;;;;;;;2301287;58;21162;-80
2022/08/30 13:36:49;;;;;;;9.35;1.30;;;;;;;;;;2300934;58;21070;-79
2022/08/30 13:39:17;;;;;;;2.15;0.98;;;;;;;;;;2301063;58;21561;-79
2022/08/30 13:41:44;;;;;;;2.17;1.05;;;;;;;;;;2300813;58;21051;-77
2022/08/30 13:44:11;;;;;;;2.05;0.80;;;;;;;;;;2301309;58;21118;-79
2022/08/30 13:46:39;;;;;;;1.27;0.75;;;;;;;;;;2301494;58;21185;-80
2022/08/30 13:49:09;;;;;;;1.30;1.05;;;;;;;;;;2299920;58;21335;-80
2022/08/30 13:51:36;;;;;;;2.37;1.00;;;;;;;;;;2538862;54;21118;-80
2022/08/30 13:54:03;;;;;;;1.33;0.88;;;;;;;;;;2300905;58;21658;-77
2022/08/30 13:56:31;;;;;;;0.75;0.65;;;;;;;;;;2300898;58;21113;-76
2022/08/30 13:58:58;;;;;;;3.92;0.98;;;;;;;;;;2300761;58;21058;-79
2022/08/30 14:01:25;;;;;;;20.70;1.95;;;;;;;;;;2301631;58;21098;-79
2022/08/30 14:03:52;;;;;;;2.83;0.85;;;;;;;;;;2299801;58;21058;-78
2022/08/30 14:06:19;;;;;;;1.20;0.70;;;;;;;;;;2298888;58;21138;-76
2022/08/30 14:08:46;;;;;;;2.03;0.90;;;;;;;;;;2301001;58;21629;-79
2022/08/30 14:11:15;;;;;;;0.70;0.70;;;;;;;;;;2301305;58;21118;-79
2022/08/30 14:13:42;;;;;;;2.85;0.90;;;;;;;;;;2301631;58;21118;-79
2022/08/30 14:16:09;;;;;;;1.20;1.00;;;;;;;;;;2300154;58;21126;-79
2022/08/30 14:18:36;;;;;;;0.88;0.70;;;;;;;;;;2300732;58;21058;-80
2022/08/30 14:21:03;;;;;;;1.62;0.93;;;;;;;;;;2301197;58;21153;-78
2022/08/30 14:23:30;;;;;;;2.33;0.98;;;;;;;;;;2299441;58;21668;-80
2022/08/30 14:25:59;;;;;;;0.98;0.80;;;;;;;;;;2300278;58;21067;-77
2022/08/30 14:28:28;;;;;;;2.00;0.90;;;;;;;;;;2301472;58;21059;-78
2022/08/30 14:30:55;;;;;;;1.58;0.65;;;;;;;;;;2301286;58;21086;-76
2022/08/30 14:33:22;;;;;;;3.75;0.90;;;;;;;;;;2538384;54;21054;-78
2022/08/30 14:35:49;;;;;;;1.60;0.73;;;;;;;;;;2536316;54;21562;-80
2022/08/30 14:38:16;;;;;;;1.17;0.80;;;;;;;;;;2300324;58;21133;-79
2022/08/30 14:40:44;;;;;;;1.35;0.98;;;;;;;;;;2301336;58;21560;-81
2022/08/30 14:43:11;;;;;;;1.92;1.10;;;;;;;;;;2538562;54;21573;-78
2022/08/30 14:45:38;;;;;;;1.62;0.75;;;;;;;;;;2301169;58;21060;-80
2022/08/30 14:48:08;;;;;;;2.30;0.98;;;;;;;;;;2301674;58;21060;-78
2022/08/30 14:50:35;;;;;;;0.95;0.80;;;;;;;;;;2300776;58;21066;-77
2022/08/30 14:53:02;;;;;;;3.58;1.10;;;;;;;;;;2301319;58;21197;-78
2022/08/30 14:55:31;;;;;;;1.33;0.70;;;;;;;;;;2300203;58;21133;-79
2022/08/30 14:57:58;;;;;;;0.88;0.75;;;;;;;;;;2300430;58;21452;-79
2022/08/30 15:00:25;;;;;;;1.08;0.70;;;;;;;;;;2301188;58;21367;-80
2022/08/30 15:02:52;;;;;;;0.90;0.50;;;;;;;;;;2300995;58;21128;-79
2022/08/30 15:05:19;;;;;;;0.80;0.75;;;;;;;;;;2301165;58;21070;-78
2022/08/30 15:07:49;;;;;;;1.77;0.68;;;;;;;;;;2538045;54;21619;-79
2022/08/30 15:10:18;;;;;;;1.77;0.90;;;;;;;;;;2301309;58;21066;-79
2022/08/30 15:12:47;;;;;;;1.08;0.60;;;;;;;;;;2301426;58;21071;-80
2022/08/30 15:15:15;;;;;;;1.58;0.60;;;;;;;;;;2299551;58;21042;-76
2022/08/30 15:17:43;;;;;;;0.93;0.62;;;;;;;;;;2300412;58;21089;-79
2022/08/30 15:20:11;;;;;;;0.90;0.52;;;;;;;;;;2301188;58;21141;-81
2022/08/30 15:22:39;;;;;;;1.23;0.60;;;;;;;;;;2537620;54;21126;-79
2022/08/30 15:25:06;;;;;;;3.50;1.42;;;;;;;;;;2299762;58;21078;-80
2022/08/30 15:27:33;;;;;;;0.93;0.52;;;;;;;;;;2300211;58;21069;-81
2022/08/30 15:30:00;;;;;;;1.23;0.80;;;;;;;;;;2298644;58;21055;-80
2022/08/30 15:32:28;;;;;;;3.42;0.70;;;;;;;;;;2300517;58;21656;-79
2022/08/30 15:34:55;;;;;;;0.75;0.60;;;;;;;;;;2299851;58;21126;-76
2022/08/30 15:37:22;;;;;;;1.95;0.65;;;;;;;;;;2299067;58;21149;-77
2022/08/30 15:39:49;;;;;;;3.95;1.05;;;;;;;;;;2536580;54;21060;-82
2022/08/30 15:42:18;;;;;;;1.05;0.40;;;;;;;;;;2537373;54;21149;-76
2022/08/30 15:44:45;;;;;;;0.50;0.30;;;;;;;;;;2299587;58;21073;-77
2022/08/30 15:47:13;;;;;;;4.43;0.40;;;;;;;;;;2300677;58;21058;-80
2022/08/30 15:49:40;;;;;;;0.40;0.40;;;;;;;;;;2300723;58;21137;-79
2022/08/30 15:52:07;;;;;;;0.35;0.32;;;;;;;;;;2300816;58;21121;-81
2022/08/30 15:54:34;;;;;;;0.95;0.43;;;;;;;;;;2300350;58;21086;-78
2022/08/30 15:57:02;;;;;;;0.65;0.37;;;;;;;;;;2299046;58;21125;-80